Male, Maldives
Current Conditions -  °F | °C
As of 3:00 PM on Sunday 23 Nov 2014 (Local Time) from VRMM Reporting Station
Broken Clouds Broken Clouds  
Wind Chill: 84°   Ceiling: 12000
Heat Index: 92°   Visibility: 6mi
Dew Point: 75°   Wind: 15mph
Humidity: 74%   Direction: 330°NNW
Pressure: 29.77"   Gusts: NA
Location:  4.17°N, 73.5°E
Report Text: VRMM 231000Z 33013KT 9999 FEW017 BKN120 29/24 Q1008 NOSIG
Loading
Personal Weather Stations






























Interactive Weather Map New forecast layout! Learn more

10-Day Weather Forecast

Advertisements
Track Severe Weather on mobile